createdAt,value
2022-11-25T00:01:25.262Z,5.20
2022-11-25T00:03:55.639Z,6.65
2022-11-25T00:06:25.163Z,5.45
2022-11-25T00:08:57.204Z,5.30
2022-11-25T00:11:25.405Z,5.22
2022-11-25T00:13:54.275Z,4.35
2022-11-25T00:16:23.312Z,5.03
2022-11-25T00:18:53.055Z,6.43
2022-11-25T00:21:23.006Z,6.07
2022-11-25T00:23:57.411Z,5.10
2022-11-25T00:26:26.877Z,4.78
2022-11-25T00:28:57.621Z,5.20
2022-11-25T00:31:27.636Z,4.88
2022-11-25T00:33:55.831Z,4.53
2022-11-25T00:36:25.291Z,4.78
2022-11-25T00:38:56.609Z,4.35
2022-11-25T00:41:43.038Z,3.55
2022-11-25T00:44:29.787Z,4.35
2022-11-25T00:46:57.853Z,4.32
2022-11-25T00:51:56.964Z,4.00
2022-11-25T00:54:26.905Z,3.92
2022-11-25T00:56:55.714Z,4.25
2022-11-25T00:59:23.725Z,4.68
2022-11-25T01:01:53.688Z,4.50
2022-11-25T01:04:21.691Z,3.90
2022-11-25T01:06:49.801Z,4.57
2022-11-25T01:09:17.855Z,4.53
2022-11-25T01:11:47.368Z,5.65
2022-11-25T01:14:15.459Z,4.32
2022-11-25T01:16:43.544Z,3.75
2022-11-25T01:19:12.493Z,4.20
2022-11-25T01:21:40.493Z,4.32
2022-11-25T01:24:09.726Z,4.28
2022-11-25T01:26:37.776Z,4.25
2022-11-25T01:29:09.335Z,3.90
2022-11-25T01:31:38.361Z,4.43
2022-11-25T01:34:08.786Z,4.65
2022-11-25T01:36:36.966Z,4.35
2022-11-25T01:39:05.995Z,4.00
2022-11-25T01:41:35.114Z,4.18
2022-11-25T01:44:11.124Z,4.13
2022-11-25T01:46:50.859Z,4.90
2022-11-25T01:49:22.311Z,4.13
2022-11-25T01:51:57.069Z,4.70
2022-11-25T01:54:28.258Z,4.22
2022-11-25T01:57:00.995Z,4.50
2022-11-25T01:59:33.491Z,4.40
2022-11-25T02:02:02.143Z,4.55
2022-11-25T02:04:34.381Z,4.75
2022-11-25T02:07:10.710Z,4.68
2022-11-25T02:09:44.383Z,5.25
2022-11-25T02:12:13.298Z,4.45
2022-11-25T02:14:43.168Z,4.28
2022-11-25T02:17:12.990Z,4.20
2022-11-25T02:19:53.837Z,4.40
2022-11-25T02:22:27.888Z,4.20
2022-11-25T02:25:03.523Z,3.88
2022-11-25T02:27:33.091Z,3.10
2022-11-25T02:30:01.201Z,3.15
2022-11-25T02:32:29.330Z,3.67
2022-11-25T02:35:00.222Z,4.35
2022-11-25T02:37:29.880Z,4.78
2022-11-25T02:39:57.947Z,4.75
2022-11-25T02:42:29.089Z,3.88
2022-11-25T02:45:00.406Z,4.35
2022-11-25T02:47:28.879Z,4.60
2022-11-25T02:49:57.353Z,4.63
2022-11-25T02:52:25.703Z,4.97
2022-11-25T02:54:53.831Z,4.25
2022-11-25T02:57:22.835Z,3.63
2022-11-25T02:59:50.815Z,4.32
2022-11-25T03:02:21.592Z,3.83
2022-11-25T03:04:49.617Z,4.15
2022-11-25T03:07:20.668Z,4.13
2022-11-25T03:09:49.595Z,4.30
2022-11-25T03:12:20.486Z,4.43
2022-11-25T03:14:51.553Z,5.00
2022-11-25T03:17:21.133Z,4.45
2022-11-25T03:19:49.155Z,4.40
2022-11-25T03:22:17.915Z,4.30
2022-11-25T03:24:46.249Z,4.50
2022-11-25T03:27:14.314Z,4.43
2022-11-25T03:29:42.777Z,4.30
2022-11-25T03:32:11.110Z,5.25
2022-11-25T03:34:41.035Z,5.03
2022-11-25T03:37:09.323Z,5.72
2022-11-25T03:39:38.303Z,5.40
2022-11-25T03:42:08.201Z,6.22
2022-11-25T03:44:36.876Z,5.97
2022-11-25T03:47:05.498Z,5.63
2022-11-25T03:49:34.546Z,4.78
2022-11-25T03:52:04.487Z,5.32
2022-11-25T03:54:32.494Z,4.82
2022-11-25T03:57:21.868Z,5.03
2022-11-25T03:59:50.143Z,5.10
2022-11-25T04:02:19.752Z,5.00
2022-11-25T04:04:48.657Z,5.00
2022-11-25T04:07:19.911Z,4.85
2022-11-25T04:09:51.552Z,4.43
2022-11-25T04:12:41.246Z,4.45
2022-11-25T04:15:10.883Z,5.95
2022-11-25T04:17:41.530Z,5.40
2022-11-25T04:20:10.793Z,4.80
2022-11-25T04:25:10.682Z,4.57
2022-11-25T04:27:39.090Z,5.25
2022-11-25T04:30:09.219Z,5.05
2022-11-25T04:32:40.378Z,5.22
2022-11-25T04:35:10.932Z,5.45
2022-11-25T04:37:42.185Z,6.22
2022-11-25T04:40:11.462Z,5.68
2022-11-25T04:42:40.544Z,6.20
2022-11-25T04:45:24.395Z,5.68
2022-11-25T04:47:54.866Z,5.90
2022-11-25T04:50:25.457Z,5.55
2022-11-25T04:53:07.231Z,5.70
2022-11-25T04:55:35.313Z,5.03
2022-11-25T04:58:07.201Z,6.13
2022-11-25T05:00:36.200Z,5.05
2022-11-25T05:03:06.436Z,5.22
2022-11-25T05:05:39.346Z,5.57
2022-11-25T05:08:09.687Z,4.95
2022-11-25T05:10:38.747Z,5.60
2022-11-25T05:13:06.911Z,5.25
2022-11-25T05:15:35.241Z,5.22
2022-11-25T05:18:07.659Z,5.50
2022-11-25T05:20:47.257Z,6.68
2022-11-25T05:23:20.537Z,6.32
2022-11-25T05:25:49.903Z,5.63
2022-11-25T05:28:32.704Z,5.22
2022-11-25T05:31:01.421Z,5.18
2022-11-25T05:33:30.357Z,5.55
2022-11-25T05:36:00.685Z,5.80
2022-11-25T05:38:37.213Z,5.70
2022-11-25T05:41:07.797Z,6.68
2022-11-25T05:43:36.334Z,5.90
2022-11-25T05:46:06.487Z,6.35
2022-11-25T05:48:36.368Z,7.35
2022-11-25T05:51:05.664Z,7.55
2022-11-25T05:53:34.606Z,7.40
2022-11-25T05:56:07.649Z,7.97
2022-11-25T05:58:56.423Z,8.38
2022-11-25T06:01:30.671Z,9.25
2022-11-25T06:04:01.068Z,9.07
2022-11-25T06:06:31.078Z,8.80
2022-11-25T06:08:59.290Z,7.88
2022-11-25T06:11:29.006Z,8.27
2022-11-25T06:13:58.437Z,8.18
2022-11-25T06:16:27.102Z,7.50
2022-11-25T06:19:06.974Z,7.53
2022-11-25T06:21:35.689Z,7.88
2022-11-25T06:24:03.702Z,8.15
2022-11-25T06:26:33.647Z,11.80
2022-11-25T06:29:02.032Z,9.73
2022-11-25T06:31:30.793Z,9.90
2022-11-25T06:34:10.817Z,10.02
2022-11-25T06:36:40.907Z,9.55
2022-11-25T06:39:09.449Z,11.40
2022-11-25T06:41:38.897Z,9.38
2022-11-25T06:44:06.877Z,9.60
2022-11-25T06:46:36.621Z,8.38
2022-11-25T06:49:04.834Z,9.70
2022-11-25T06:51:32.825Z,10.00
2022-11-25T06:54:00.797Z,8.25
2022-11-25T06:56:29.508Z,8.38
2022-11-25T06:58:58.797Z,8.45
2022-11-25T07:01:29.051Z,10.97
2022-11-25T07:06:27.524Z,9.80
2022-11-25T07:08:55.597Z,12.23
2022-11-25T07:11:25.973Z,11.20
2022-11-25T07:13:56.019Z,17.48
2022-11-25T07:16:26.022Z,12.43
2022-11-25T07:18:54.502Z,12.07
2022-11-25T07:21:25.462Z,10.15
2022-11-25T07:23:53.932Z,10.90
2022-11-25T07:26:23.762Z,9.98
2022-11-25T07:28:53.500Z,9.85
2022-11-25T07:31:24.768Z,10.95
2022-11-25T07:33:59.680Z,10.18
2022-11-25T07:36:28.704Z,10.43
2022-11-25T07:38:57.031Z,10.75
2022-11-25T07:41:26.732Z,11.00
2022-11-25T07:43:56.939Z,10.73
2022-11-25T07:46:27.757Z,10.43
2022-11-25T07:49:02.974Z,10.77
2022-11-25T07:51:33.349Z,11.10
2022-11-25T07:54:03.286Z,12.35
2022-11-25T07:56:31.814Z,13.23
2022-11-25T07:58:59.965Z,12.50
2022-11-25T08:01:28.308Z,11.75
2022-11-25T08:03:58.012Z,12.63
2022-11-25T08:06:28.226Z,11.50
2022-11-25T08:11:26.529Z,11.40
2022-11-25T08:16:24.685Z,11.05
2022-11-25T08:18:55.221Z,10.60
2022-11-25T08:21:24.832Z,10.05
2022-11-25T08:23:53.444Z,11.80
2022-11-25T08:26:23.128Z,11.65
2022-11-25T08:28:51.529Z,12.32
2022-11-25T08:31:22.047Z,11.07
2022-11-25T08:33:51.103Z,11.75
2022-11-25T08:36:19.838Z,13.10
2022-11-25T08:38:52.249Z,12.05
2022-11-25T08:41:22.722Z,12.27
2022-11-25T08:43:51.212Z,12.32
2022-11-25T08:46:22.223Z,12.48
2022-11-25T08:48:50.474Z,13.00
2022-11-25T08:51:21.041Z,14.50
2022-11-25T08:53:51.667Z,12.95
2022-11-25T08:56:25.781Z,13.63
2022-11-25T08:58:54.614Z,15.60
2022-11-25T09:01:25.742Z,15.50
2022-11-25T09:03:56.499Z,15.82
2022-11-25T09:06:26.076Z,14.15
2022-11-25T09:08:58.453Z,17.45
2022-11-25T09:11:27.414Z,19.95
2022-11-25T09:13:55.417Z,24.48
2022-11-25T09:16:24.356Z,23.10
2022-11-25T09:18:56.009Z,15.52
2022-11-25T09:21:25.774Z,17.90
2022-11-25T09:23:55.186Z,22.10
2022-11-25T09:26:26.900Z,18.27
2022-11-25T09:28:55.293Z,18.38
2022-11-25T09:31:24.606Z,14.65
2022-11-25T09:33:52.922Z,16.27
2022-11-25T09:36:23.677Z,15.10
2022-11-25T09:38:56.133Z,14.70
2022-11-25T09:42:01.759Z,13.57
2022-11-25T09:45:00.240Z,14.02
2022-11-25T09:47:34.700Z,15.55
2022-11-25T09:50:13.813Z,13.63
2022-11-25T09:52:49.318Z,18.67
2022-11-25T09:55:20.599Z,18.58
2022-11-25T09:58:11.229Z,16.33
2022-11-25T10:00:42.406Z,17.05
2022-11-25T10:03:20.135Z,21.52
2022-11-25T10:06:04.575Z,16.65
2022-11-25T10:08:38.911Z,16.23
2022-11-25T10:11:19.123Z,15.43
2022-11-25T10:13:54.944Z,15.43
2022-11-25T10:16:37.040Z,14.43
2022-11-25T10:19:16.905Z,13.95
2022-11-25T10:21:46.432Z,14.30
2022-11-25T10:24:17.678Z,14.23
2022-11-25T10:26:47.808Z,13.55
2022-11-25T10:29:27.481Z,13.88
2022-11-25T10:32:22.018Z,13.43
2022-11-25T10:34:53.782Z,12.77
2022-11-25T10:37:28.670Z,12.73
2022-11-25T10:39:56.810Z,15.75
2022-11-25T10:42:27.039Z,15.63
2022-11-25T10:47:37.438Z,14.55
2022-11-25T10:50:16.392Z,15.38
2022-11-25T10:52:51.454Z,13.70
2022-11-25T10:55:24.108Z,15.15
2022-11-25T10:57:52.510Z,16.65
2022-11-25T11:00:33.762Z,14.77
2022-11-25T11:03:17.283Z,14.43
2022-11-25T11:05:47.634Z,14.25
2022-11-25T11:10:48.786Z,19.10
2022-11-25T11:13:24.318Z,17.30
2022-11-25T11:15:55.590Z,16.05
2022-11-25T11:18:29.223Z,15.05
2022-11-25T11:20:59.511Z,14.75
2022-11-25T11:26:02.012Z,14.27
2022-11-25T11:28:38.890Z,14.73
2022-11-25T11:31:19.219Z,15.20
2022-11-25T11:34:02.094Z,15.48
2022-11-25T11:36:52.594Z,14.60
2022-11-25T11:39:59.941Z,12.43
2022-11-25T11:42:41.090Z,13.32
2022-11-25T11:45:33.523Z,13.57
2022-11-25T11:48:12.394Z,12.70
2022-11-25T11:50:44.970Z,11.43
2022-11-25T11:53:23.922Z,13.40
2022-11-25T11:56:33.721Z,12.30
2022-11-25T11:59:02.640Z,12.85
2022-11-25T12:01:40.915Z,12.50
2022-11-25T12:04:19.177Z,13.13
2022-11-25T12:06:57.940Z,13.07
2022-11-25T12:09:30.005Z,12.15
2022-11-25T12:12:05.598Z,12.55
2022-11-25T12:14:41.400Z,15.32
2022-11-25T12:17:18.297Z,18.92
2022-11-25T12:19:56.226Z,15.02
2022-11-25T12:22:30.049Z,18.20
2022-11-25T12:25:07.501Z,11.85
2022-11-25T12:27:40.036Z,11.93
2022-11-25T12:30:14.005Z,12.27
2022-11-25T12:32:54.557Z,11.38
2022-11-25T12:35:34.944Z,12.13
2022-11-25T12:38:06.873Z,10.30
2022-11-25T12:40:42.351Z,9.10
2022-11-25T12:43:34.411Z,9.13
2022-11-25T12:46:13.196Z,7.97
2022-11-25T12:48:43.675Z,7.65
2022-11-25T12:51:21.611Z,7.30
2022-11-25T12:54:02.580Z,7.88
2022-11-25T12:56:51.052Z,7.35
2022-11-25T12:59:37.069Z,8.18
2022-11-25T13:02:31.337Z,7.30
2022-11-25T13:05:41.257Z,6.70
2022-11-25T13:08:24.489Z,6.93
2022-11-25T13:11:09.717Z,7.68
2022-11-25T13:13:51.064Z,7.55
2022-11-25T13:16:21.379Z,7.25
2022-11-25T13:18:50.927Z,7.20
2022-11-25T13:21:20.952Z,9.07
2022-11-25T13:23:53.434Z,8.27
2022-11-25T13:26:50.319Z,7.72
2022-11-25T13:30:01.436Z,11.52
2022-11-25T13:32:39.417Z,11.73
2022-11-25T13:35:38.719Z,11.80
2022-11-25T13:38:37.666Z,10.23
2022-11-25T13:41:24.267Z,8.70
2022-11-25T13:44:01.710Z,6.95
2022-11-25T13:46:39.002Z,7.72
2022-11-25T13:49:08.746Z,6.72
2022-11-25T13:51:38.025Z,7.55
2022-11-25T13:54:07.881Z,7.55
2022-11-25T13:56:40.198Z,6.95
2022-11-25T13:59:36.394Z,8.02
2022-11-25T14:02:45.636Z,8.02
2022-11-25T14:05:51.402Z,8.65
2022-11-25T14:08:27.607Z,7.90
2022-11-25T14:11:19.784Z,9.63
2022-11-25T14:14:14.811Z,8.20
2022-11-25T14:17:02.402Z,7.80
2022-11-25T14:20:04.509Z,8.70
2022-11-25T14:23:02.649Z,10.57
2022-11-25T14:25:43.258Z,12.50
2022-11-25T14:28:23.050Z,28.50
2022-11-25T14:30:55.453Z,19.58
2022-11-25T14:33:31.526Z,22.92
2022-11-25T14:36:04.624Z,14.80
2022-11-25T14:38:39.871Z,12.07
2022-11-25T14:41:12.519Z,10.00
2022-11-25T14:43:44.228Z,9.40
2022-11-25T14:46:16.634Z,11.63
2022-11-25T14:48:45.371Z,12.70
2022-11-25T14:51:14.843Z,13.30
2022-11-25T14:53:48.257Z,12.80
2022-11-25T14:56:22.152Z,15.85
2022-11-25T14:58:51.808Z,13.80
2022-11-25T15:01:24.001Z,12.88
2022-11-25T15:04:02.383Z,10.73
2022-11-25T15:06:35.445Z,11.10
2022-11-25T15:09:04.672Z,12.18
2022-11-25T15:11:35.894Z,13.70
2022-11-25T15:14:06.827Z,13.50
2022-11-25T15:16:39.871Z,11.63
2022-11-25T15:19:17.596Z,13.10
2022-11-25T15:22:15.009Z,14.05
2022-11-25T15:24:42.875Z,22.45
2022-11-25T15:27:16.134Z,19.80
2022-11-25T15:29:45.141Z,18.73
2022-11-25T15:32:19.099Z,20.15
2022-11-25T15:34:48.561Z,19.38
2022-11-25T15:37:16.601Z,23.60
2022-11-25T15:39:44.772Z,22.98
2022-11-25T15:42:17.799Z,20.75
2022-11-25T15:44:50.105Z,19.45
2022-11-25T15:47:24.531Z,21.48
2022-11-25T15:50:01.699Z,21.02
2022-11-25T15:52:32.320Z,23.52
2022-11-25T15:55:04.417Z,22.77
2022-11-25T15:57:35.837Z,22.00
2022-11-25T16:00:16.139Z,15.98
2022-11-25T16:05:31.681Z,15.02
2022-11-25T16:08:02.878Z,13.82
2022-11-25T16:10:32.628Z,16.15
2022-11-25T16:13:29.679Z,14.05
2022-11-25T16:16:02.140Z,18.83
2022-11-25T16:18:40.642Z,16.67
2022-11-25T16:21:11.779Z,17.27
2022-11-25T16:23:44.569Z,16.23
2022-11-25T16:26:18.553Z,17.30
2022-11-25T16:28:54.499Z,16.90
2022-11-25T16:31:23.394Z,17.65
2022-11-25T16:33:55.281Z,16.95
2022-11-25T16:36:23.336Z,17.30
2022-11-25T16:38:54.188Z,19.55
2022-11-25T16:41:25.399Z,19.27
2022-11-25T16:43:57.208Z,22.95
2022-11-25T16:46:28.109Z,23.17
2022-11-25T16:48:57.520Z,23.67
2022-11-25T16:51:26.064Z,23.23
2022-11-25T16:53:54.027Z,21.80
2022-11-25T16:56:27.862Z,21.85
2022-11-25T16:58:56.560Z,20.00
2022-11-25T17:01:27.556Z,20.92
2022-11-25T17:03:58.238Z,21.10
2022-11-25T17:06:28.321Z,23.00
2022-11-25T17:08:56.512Z,20.40
2022-11-25T17:11:29.969Z,22.65
2022-11-25T17:14:00.430Z,20.65
2022-11-25T17:16:30.943Z,23.92
2022-11-25T17:19:01.598Z,26.08
2022-11-25T17:21:29.761Z,36.53
2022-11-25T17:24:02.931Z,34.05
2022-11-25T17:26:37.840Z,39.28
2022-11-25T17:29:09.665Z,48.85
2022-11-25T17:31:39.668Z,48.08
2022-11-25T17:34:14.658Z,48.58
2022-11-25T17:36:42.933Z,47.97
2022-11-25T17:39:13.228Z,44.35
2022-11-25T17:41:45.012Z,45.85
2022-11-25T17:44:26.214Z,48.17
2022-11-25T17:46:54.672Z,48.20
2022-11-25T17:49:24.830Z,47.55
2022-11-25T17:51:53.189Z,48.00
2022-11-25T17:54:21.174Z,50.15
2022-11-25T17:56:52.296Z,50.17
2022-11-25T17:59:26.434Z,47.00
2022-11-25T18:01:55.993Z,37.78
2022-11-25T18:04:27.893Z,37.00
2022-11-25T18:06:56.110Z,35.97
2022-11-25T18:09:24.251Z,33.97
2022-11-25T18:11:54.303Z,34.88
2022-11-25T18:14:26.839Z,36.20
2022-11-25T18:16:55.889Z,34.22
2022-11-25T18:19:25.649Z,33.83
2022-11-25T18:21:53.870Z,34.35
2022-11-25T18:24:22.151Z,34.63
2022-11-25T18:26:53.041Z,37.15
2022-11-25T18:29:24.990Z,43.53
2022-11-25T18:31:55.986Z,45.13
2022-11-25T18:34:26.364Z,47.58
2022-11-25T18:36:54.455Z,53.75
2022-11-25T18:39:23.396Z,52.67
2022-11-25T18:41:53.850Z,50.97
2022-11-25T18:44:26.296Z,53.92
2022-11-25T18:47:05.856Z,55.25
2022-11-25T18:49:35.335Z,56.63
2022-11-25T18:52:04.999Z,60.00
2022-11-25T18:54:33.189Z,65.32
2022-11-25T18:57:01.365Z,61.45
2022-11-25T18:59:34.066Z,61.35
2022-11-25T19:02:02.461Z,54.08
2022-11-25T19:04:30.515Z,60.60
2022-11-25T19:07:00.185Z,59.38
2022-11-25T19:09:28.325Z,62.53
2022-11-25T19:11:56.580Z,57.70
2022-11-25T19:14:30.358Z,73.07
2022-11-25T19:17:02.004Z,72.70
2022-11-25T19:19:30.896Z,68.85
2022-11-25T19:22:01.495Z,54.67
2022-11-25T19:24:29.666Z,40.88
2022-11-25T19:26:58.470Z,36.05
2022-11-25T19:29:35.365Z,29.48
2022-11-25T19:32:14.022Z,25.30
2022-11-25T19:34:45.857Z,21.35
2022-11-25T19:37:19.904Z,20.48
2022-11-25T19:39:48.336Z,20.23
2022-11-25T19:42:16.261Z,18.40
2022-11-25T19:44:45.073Z,18.05
2022-11-25T19:47:17.841Z,17.65
2022-11-25T19:49:46.337Z,16.25
2022-11-25T19:52:17.915Z,17.55
2022-11-25T19:54:46.164Z,16.63
2022-11-25T19:57:17.591Z,16.45
2022-11-25T19:59:46.200Z,17.02
2022-11-25T20:02:16.919Z,18.17
2022-11-25T20:04:46.693Z,17.38
2022-11-25T20:07:18.013Z,17.38
2022-11-25T20:09:46.115Z,16.63
2022-11-25T20:12:21.363Z,16.92
2022-11-25T20:14:50.038Z,17.35
2022-11-25T20:17:25.660Z,16.80
2022-11-25T20:19:54.853Z,18.70
2022-11-25T20:22:31.309Z,17.05
2022-11-25T20:25:01.505Z,17.63
2022-11-25T20:27:29.960Z,16.55
2022-11-25T20:29:58.010Z,17.65
2022-11-25T20:32:29.168Z,17.30
2022-11-25T20:34:58.037Z,16.70
2022-11-25T20:37:40.273Z,16.92
2022-11-25T20:40:16.790Z,17.92
2022-11-25T20:42:45.096Z,16.55
2022-11-25T20:45:15.370Z,17.30
2022-11-25T20:50:14.108Z,14.95
2022-11-25T20:52:44.440Z,16.60
2022-11-25T20:57:45.123Z,17.30
2022-11-25T21:00:18.589Z,18.55
2022-11-25T21:02:46.827Z,22.70
2022-11-25T21:05:15.057Z,24.10
2022-11-25T21:07:45.318Z,27.88
2022-11-25T21:12:50.008Z,21.23
2022-11-25T21:15:20.362Z,23.17
2022-11-25T21:20:18.164Z,17.30
2022-11-25T21:22:51.060Z,20.65
2022-11-25T21:25:21.535Z,28.67
2022-11-25T21:27:52.170Z,45.45
2022-11-25T21:30:21.770Z,25.55
2022-11-25T21:32:53.190Z,20.23
2022-11-25T21:35:21.361Z,30.60
2022-11-25T21:37:50.887Z,44.38
2022-11-25T21:40:31.403Z,44.60
2022-11-25T21:42:59.872Z,166.82
2022-11-25T21:45:28.038Z,69.30
2022-11-25T21:47:56.122Z,48.47
2022-11-25T21:50:29.214Z,33.83
2022-11-25T21:53:00.970Z,36.90
2022-11-25T21:55:28.941Z,24.42
2022-11-25T21:57:56.993Z,21.73
2022-11-25T22:00:27.538Z,22.27
2022-11-25T22:02:55.855Z,23.40
2022-11-25T22:05:26.780Z,21.88
2022-11-25T22:07:55.319Z,21.52
2022-11-25T22:10:25.638Z,21.75
2022-11-25T22:12:53.694Z,23.05
2022-11-25T22:15:24.197Z,21.05
2022-11-25T22:17:56.605Z,22.52
2022-11-25T22:20:30.471Z,22.50
2022-11-25T22:22:58.538Z,22.58
2022-11-25T22:25:30.703Z,22.35
2022-11-25T22:27:58.995Z,22.60
2022-11-25T22:30:26.896Z,21.50
2022-11-25T22:33:01.068Z,21.35
2022-11-25T22:35:29.720Z,19.92
2022-11-25T22:37:57.789Z,21.13
2022-11-25T22:40:27.669Z,21.08
2022-11-25T22:42:57.452Z,22.40
2022-11-25T22:45:31.901Z,21.48
2022-11-25T22:48:02.039Z,22.08
2022-11-25T22:50:31.551Z,20.95
2022-11-25T22:53:00.346Z,23.53
2022-11-25T22:55:31.972Z,22.88
2022-11-25T22:58:04.096Z,22.70
2022-11-25T23:00:35.190Z,24.65
2022-11-25T23:03:07.257Z,23.83
2022-11-25T23:05:37.275Z,23.20
2022-11-25T23:08:12.516Z,23.00
2022-11-25T23:10:42.565Z,22.85
2022-11-25T23:13:10.530Z,24.95
2022-11-25T23:15:39.005Z,22.90
2022-11-25T23:18:15.338Z,24.80
2022-11-25T23:20:43.775Z,23.38
2022-11-25T23:23:15.995Z,23.85
2022-11-25T23:25:46.334Z,21.30
2022-11-25T23:30:48.163Z,21.15
2022-11-25T23:33:22.823Z,22.85
2022-11-25T23:35:51.125Z,20.08
2022-11-25T23:38:23.755Z,22.63
2022-11-25T23:40:53.229Z,22.05
2022-11-25T23:43:21.510Z,23.73
2022-11-25T23:45:52.873Z,20.67
2022-11-25T23:48:23.911Z,22.48
2022-11-25T23:50:53.074Z,23.85
2022-11-25T23:53:25.809Z,22.25
2022-11-25T23:55:55.369Z,21.13
2022-11-25T23:58:24.740Z,21.33
